Time;durP1;ratioP1;P1;durP2;ratioP2;P2;SDS_P1;SDS_P2;PMS_P1;PMS_P2;Temp;Humidity;BMP_temperature;BMP_pressure;BME280_temperature;BME280_humidity;BME280_pressure;Samples;Min_cycle;Max_cycle;Signal;HPM_P1;HPM_P2
2021/08/09 00:01:44;;;;;;;2.33;1.67;;;21.80;61.60;;;;;;5111925;28;20169;-65
2021/08/09 00:04:10;;;;;;;2.88;1.42;;;21.80;61.50;;;;;;5111299;28;20661;-64
2021/08/09 00:06:35;;;;;;;3.50;1.60;;;21.80;61.60;;;;;;5111544;28;20200;-64
2021/08/09 00:09:02;;;;;;;2.17;1.38;;;21.80;61.50;;;;;;5111743;28;20177;-64
2021/08/09 00:11:28;;;;;;;1.45;1.35;;;21.80;61.50;;;;;;5110996;28;20169;-65
2021/08/09 00:13:54;;;;;;;2.15;1.60;;;21.80;61.60;;;;;;5111881;28;20181;-65
2021/08/09 00:16:19;;;;;;;2.20;1.45;;;21.80;61.60;;;;;;5111516;28;20172;-65
2021/08/09 00:18:49;;;;;;;3.33;1.65;;;21.80;61.60;;;;;;5114319;28;20177;-64
2021/08/09 00:21:15;;;;;;;2.13;1.55;;;21.80;61.60;;;;;;5115631;28;20654;-63
2021/08/09 00:23:40;;;;;;;3.38;1.85;;;21.80;61.60;;;;;;5115823;28;20181;-63
2021/08/09 00:26:06;;;;;;;2.30;1.30;;;21.80;61.60;;;;;;5115185;28;20169;-64
2021/08/09 00:28:31;;;;;;;2.80;1.40;;;21.80;61.60;;;;;;5115395;28;20204;-64
2021/08/09 00:30:57;;;;;;;2.88;1.52;;;21.80;61.60;;;;;;5115584;28;20215;-65
2021/08/09 00:33:22;;;;;;;3.45;1.50;;;21.70;61.60;;;;;;5114978;28;20624;-65
2021/08/09 00:35:48;;;;;;;2.33;1.45;;;21.70;61.60;;;;;;5115516;28;20176;-65
2021/08/09 00:38:14;;;;;;;2.65;1.60;;;21.70;61.60;;;;;;5115366;28;20169;-64
2021/08/09 00:40:39;;;;;;;5.45;1.70;;;21.70;61.60;;;;;;5114725;28;20660;-65
2021/08/09 00:43:05;;;;;;;2.22;1.45;;;21.70;61.60;;;;;;5115434;28;20505;-64
2021/08/09 00:45:30;;;;;;;1.63;1.33;;;21.70;61.60;;;;;;5115034;28;20177;-65
2021/08/09 00:47:56;;;;;;;2.20;1.50;;;21.70;61.60;;;;;;5114647;28;20205;-65
2021/08/09 00:50:21;;;;;;;2.92;1.70;;;21.70;61.60;;;;;;5114902;28;20173;-64
2021/08/09 00:52:47;;;;;;;1.58;1.48;;;21.70;61.60;;;;;;5115071;28;20173;-65
2021/08/09 00:55:12;;;;;;;1.88;1.70;;;21.70;61.60;;;;;;5114330;28;20169;-65
2021/08/09 00:57:38;;;;;;;1.63;1.52;;;21.70;61.60;;;;;;5114934;28;20196;-65
2021/08/09 01:00:04;;;;;;;2.53;1.55;;;21.70;61.60;;;;;;5096114;28;20191;-65
2021/08/09 01:02:30;;;;;;;2.47;1.40;;;21.70;61.70;;;;;;5114832;28;20559;-65
2021/08/09 01:05:00;;;;;;;3.17;1.60;;;21.70;61.60;;;;;;5114852;28;20611;-65
2021/08/09 01:07:26;;;;;;;3.08;1.58;;;21.70;61.60;;;;;;5113661;28;20239;-64
2021/08/09 01:10:02;;;;;;;2.90;1.80;;;21.70;61.70;;;;;;5096954;28;20278;-64
2021/08/09 01:12:36;;;;;;;2.25;1.70;;;21.60;61.60;;;;;;5114764;28;20200;-64
2021/08/09 01:15:08;;;;;;;2.03;1.50;;;21.70;61.70;;;;;;5096113;28;20577;-64
2021/08/09 01:17:35;;;;;;;2.75;1.50;;;21.70;61.70;;;;;;5114277;28;20548;-64
2021/08/09 01:20:00;;;;;;;6.13;1.73;;;21.70;61.70;;;;;;5096245;28;20165;-64
2021/08/09 01:23:13;;;;;;;2.75;1.35;;;21.70;61.70;;;;;;5114013;28;20253;-64
2021/08/09 01:25:48;;;;;;;2.95;1.73;;;21.60;61.70;;;;;;5060518;28;20185;-64
2021/08/09 01:28:14;;;;;;;2.45;1.40;;;21.60;61.70;;;;;;5095254;28;20212;-64
2021/08/09 01:30:39;;;;;;;4.13;1.50;;;21.70;61.70;;;;;;5095475;28;20172;-65
2021/08/09 01:33:06;;;;;;;2.25;1.80;;;21.60;62.50;;;;;;5096338;28;20173;-64
2021/08/09 01:35:32;;;;;;;3.38;1.80;;;21.60;61.60;;;;;;5095342;28;20226;-65
2021/08/09 01:37:58;;;;;;;2.22;1.80;;;21.60;61.60;;;;;;5096289;28;20173;-64
2021/08/09 01:40:24;;;;;;;2.20;1.77;;;21.60;61.70;;;;;;5095966;28;20196;-65
2021/08/09 01:42:49;;;;;;;2.53;1.50;;;21.60;61.70;;;;;;5113584;28;20208;-64
2021/08/09 01:45:15;;;;;;;1.98;1.23;;;21.60;61.80;;;;;;5096217;28;20211;-64
2021/08/09 01:47:41;;;;;;;2.10;1.80;;;21.60;61.70;;;;;;5114407;28;20208;-64
2021/08/09 01:50:07;;;;;;;1.90;1.67;;;21.60;61.70;;;;;;5095193;28;20201;-64
2021/08/09 01:52:32;;;;;;;1.80;1.35;;;21.60;61.70;;;;;;5095500;28;20234;-65
2021/08/09 01:54:58;;;;;;;2.80;1.67;;;21.60;61.80;;;;;;5114054;28;20165;-65
2021/08/09 01:57:27;;;;;;;3.47;1.65;;;21.60;61.70;;;;;;5094651;28;20173;-65
2021/08/09 01:59:53;;;;;;;3.00;1.35;;;21.60;61.70;;;;;;5114189;28;20173;-65
2021/08/09 02:02:28;;;;;;;3.80;1.85;;;21.60;61.70;;;;;;5113846;28;20650;-65
2021/08/09 02:04:54;;;;;;;2.83;1.50;;;21.60;61.70;;;;;;5113427;28;20173;-64
2021/08/09 02:07:19;;;;;;;3.13;1.40;;;21.60;61.70;;;;;;5113703;28;20239;-64
2021/08/09 02:09:45;;;;;;;2.10;1.42;;;21.50;61.60;;;;;;5095402;28;20165;-64
2021/08/09 02:12:10;;;;;;;2.78;1.60;;;21.50;61.70;;;;;;5094725;28;20238;-64
2021/08/09 02:14:43;;;;;;;3.08;1.77;;;21.50;61.60;;;;;;5095326;28;20201;-63
2021/08/09 02:17:21;;;;;;;2.17;1.80;;;21.50;61.60;;;;;;5095383;28;20677;-64
2021/08/09 02:19:51;;;;;;;3.33;1.85;;;21.50;61.70;;;;;;5095726;28;20187;-64
2021/08/09 02:22:19;;;;;;;2.45;1.60;;;21.50;61.70;;;;;;5113216;28;20631;-64
2021/08/09 02:25:04;;;;;;;3.03;1.60;;;21.50;61.70;;;;;;5094784;28;20184;-64
2021/08/09 02:27:41;;;;;;;2.67;1.40;;;21.50;61.60;;;;;;5095362;28;20224;-63
2021/08/09 02:30:07;;;;;;;2.55;1.52;;;21.50;61.70;;;;;;5095246;28;20217;-64
2021/08/09 02:32:33;;;;;;;2.53;1.45;;;21.50;61.70;;;;;;5093904;28;20276;-65
2021/08/09 02:34:59;;;;;;;2.78;1.45;;;21.50;61.70;;;;;;5095096;28;20166;-65
2021/08/09 02:37:25;;;;;;;3.47;1.92;;;21.50;61.70;;;;;;5094682;28;20173;-64
2021/08/09 02:39:50;;;;;;;3.15;1.85;;;21.50;61.80;;;;;;5094150;28;20631;-64
2021/08/09 02:42:16;;;;;;;2.03;1.33;;;21.50;61.70;;;;;;5094599;28;20180;-64
2021/08/09 02:44:41;;;;;;;1.48;1.30;;;21.50;61.70;;;;;;5113083;28;20173;-64
2021/08/09 02:47:07;;;;;;;2.92;1.60;;;21.50;61.80;;;;;;5094013;28;20230;-64
2021/08/09 02:49:33;;;;;;;2.88;1.70;;;21.50;61.70;;;;;;5112630;28;20595;-64
2021/08/09 02:51:58;;;;;;;4.82;1.92;;;21.50;61.70;;;;;;5094875;28;20261;-64
2021/08/09 02:54:24;;;;;;;3.42;1.75;;;21.50;61.80;;;;;;5093990;28;20173;-64
2021/08/09 02:56:49;;;;;;;4.57;1.80;;;21.50;61.80;;;;;;5112975;28;20180;-64
2021/08/09 02:59:15;;;;;;;4.32;2.00;;;21.50;61.80;;;;;;5094627;28;20170;-65
2021/08/09 03:01:41;;;;;;;1.80;1.67;;;21.50;61.80;;;;;;5112032;28;20603;-64
2021/08/09 03:04:08;;;;;;;2.58;1.60;;;21.40;61.70;;;;;;5112685;28;20226;-64
2021/08/09 03:06:33;;;;;;;2.30;1.45;;;21.40;61.80;;;;;;5111864;28;20177;-64
2021/08/09 03:08:59;;;;;;;2.35;1.90;;;21.40;61.80;;;;;;5112836;28;20264;-63
2021/08/09 03:11:24;;;;;;;3.67;1.85;;;21.40;61.80;;;;;;5094203;28;20263;-64
2021/08/09 03:13:50;;;;;;;2.50;1.48;;;21.50;61.90;;;;;;5093793;28;20203;-64
2021/08/09 03:16:15;;;;;;;1.65;1.50;;;21.40;61.80;;;;;;5112475;28;20637;-64
2021/08/09 03:18:44;;;;;;;1.92;1.50;;;21.40;61.80;;;;;;5112549;28;20181;-64
2021/08/09 03:21:09;;;;;;;3.22;1.95;;;21.40;61.80;;;;;;5111659;28;20251;-64
2021/08/09 03:23:35;;;;;;;2.47;1.55;;;21.50;61.90;;;;;;5112117;28;20691;-64
2021/08/09 03:26:00;;;;;;;3.10;2.35;;;21.40;61.80;;;;;;5112536;28;20206;-63
2021/08/09 03:28:26;;;;;;;2.67;1.75;;;21.40;61.70;;;;;;5111320;28;20634;-64
2021/08/09 03:30:51;;;;;;;2.40;1.80;;;21.40;61.80;;;;;;5112298;28;20673;-64
2021/08/09 03:33:17;;;;;;;2.08;1.83;;;21.40;61.80;;;;;;5112140;28;20359;-65
2021/08/09 03:35:43;;;;;;;2.33;1.50;;;21.40;61.90;;;;;;5111786;28;20479;-64
2021/08/09 03:38:08;;;;;;;2.55;1.58;;;21.40;61.80;;;;;;5112330;28;20173;-64
2021/08/09 03:40:35;;;;;;;2.33;1.60;;;21.40;61.80;;;;;;5111984;28;20630;-64
2021/08/09 03:43:04;;;;;;;2.67;1.80;;;21.40;61.90;;;;;;5111580;28;20260;-64
2021/08/09 03:45:30;;;;;;;3.28;2.05;;;21.40;61.90;;;;;;5111936;28;20264;-65
2021/08/09 03:47:56;;;;;;;2.95;1.67;;;21.40;61.80;;;;;;5112086;28;20711;-64
2021/08/09 03:50:21;;;;;;;3.83;1.70;;;21.40;61.80;;;;;;5111272;28;20177;-64
2021/08/09 03:52:53;;;;;;;3.13;1.55;;;21.40;61.80;;;;;;5111566;28;20222;-64
2021/08/09 03:55:19;;;;;;;3.65;2.10;;;21.40;61.90;;;;;;5111760;28;20680;-65
2021/08/09 03:57:45;;;;;;;2.55;1.73;;;21.40;61.90;;;;;;5111312;28;20185;-65
2021/08/09 04:00:13;;;;;;;2.08;1.83;;;21.40;61.80;;;;;;5111936;28;20217;-64
2021/08/09 04:02:39;;;;;;;4.15;1.60;;;21.40;61.80;;;;;;5111822;28;20190;-64
2021/08/09 04:05:08;;;;;;;4.72;1.80;;;21.40;61.90;;;;;;5111487;28;20177;-64
2021/08/09 04:07:35;;;;;;;2.72;1.80;;;21.40;61.90;;;;;;5111768;28;20213;-63
2021/08/09 04:10:00;;;;;;;2.95;1.42;;;21.40;61.90;;;;;;5111164;28;20173;-64
2021/08/09 04:12:26;;;;;;;1.73;1.30;;;21.40;61.90;;;;;;5111562;28;20310;-65
2021/08/09 04:14:52;;;;;;;2.58;1.45;;;21.30;61.90;;;;;;5112134;28;20215;-64
2021/08/09 04:17:18;;;;;;;3.10;1.63;;;21.30;61.90;;;;;;5111041;28;20618;-65
2021/08/09 04:19:46;;;;;;;3.15;1.55;;;21.40;61.90;;;;;;5111941;28;20307;-67
2021/08/09 04:22:12;;;;;;;3.35;1.60;;;21.40;62.00;;;;;;5112015;28;20682;-64
2021/08/09 04:24:37;;;;;;;3.47;1.67;;;21.40;61.90;;;;;;5110921;28;20177;-64
2021/08/09 04:27:03;;;;;;;2.53;1.80;;;21.30;61.80;;;;;;5111671;28;20205;-64
2021/08/09 04:29:28;;;;;;;3.15;1.60;;;21.30;61.90;;;;;;5111399;28;20184;-64
2021/08/09 04:31:54;;;;;;;3.97;2.03;;;21.30;62.00;;;;;;5111194;28;20204;-64
2021/08/09 04:34:19;;;;;;;1.88;1.60;;;21.30;61.90;;;;;;5111717;28;20256;-66
2021/08/09 04:36:44;;;;;;;2.70;1.75;;;21.30;61.90;;;;;;5111918;28;20248;-65
2021/08/09 04:39:10;;;;;;;4.03;2.10;;;21.30;61.90;;;;;;5111157;28;20662;-65
2021/08/09 04:41:36;;;;;;;3.70;1.80;;;21.30;61.90;;;;;;5111443;28;20181;-65
2021/08/09 04:44:01;;;;;;;2.83;1.60;;;21.30;62.00;;;;;;5111655;28;20542;-64
2021/08/09 04:46:30;;;;;;;2.80;1.73;;;21.30;61.90;;;;;;5110689;28;20176;-64
2021/08/09 04:48:55;;;;;;;2.47;1.70;;;21.30;61.90;;;;;;5111686;28;20186;-64
2021/08/09 04:51:24;;;;;;;3.30;1.77;;;21.30;61.90;;;;;;5111373;28;20184;-64
2021/08/09 04:53:49;;;;;;;4.07;2.25;;;21.30;61.90;;;;;;5110960;28;20307;-65
2021/08/09 04:56:15;;;;;;;2.78;1.48;;;21.30;61.90;;;;;;5111526;28;20197;-65
2021/08/09 04:58:40;;;;;;;4.32;2.00;;;21.30;61.90;;;;;;5111196;28;20264;-65
2021/08/09 05:01:07;;;;;;;3.55;1.55;;;21.30;61.90;;;;;;5111048;28;20195;-64
2021/08/09 05:03:37;;;;;;;3.65;1.75;;;21.30;61.90;;;;;;5112562;28;20184;-64
2021/08/09 05:06:02;;;;;;;4.00;1.80;;;21.30;61.80;;;;;;5114507;28;20604;-63
2021/08/09 05:08:28;;;;;;;3.72;1.85;;;21.30;61.80;;;;;;5114840;28;20261;-63
2021/08/09 05:10:53;;;;;;;2.13;1.42;;;21.30;61.70;;;;;;5114999;28;20170;-65
2021/08/09 05:13:19;;;;;;;3.88;2.17;;;21.30;61.80;;;;;;5113948;28;20199;-65
2021/08/09 05:15:44;;;;;;;2.13;1.60;;;21.40;61.70;;;;;;5114884;28;20643;-65
2021/08/09 05:18:14;;;;;;;4.00;1.58;;;21.30;61.60;;;;;;5115096;28;20205;-64
2021/08/09 05:20:40;;;;;;;3.63;1.70;;;21.30;61.70;;;;;;5113678;28;20213;-64
2021/08/09 05:23:05;;;;;;;2.35;1.60;;;21.30;61.80;;;;;;5114819;28;20255;-64
2021/08/09 05:25:31;;;;;;;1.83;1.70;;;21.30;61.70;;;;;;5114421;28;20188;-64
2021/08/09 05:27:57;;;;;;;3.15;1.85;;;21.30;61.70;;;;;;5114220;28;20241;-64
2021/08/09 05:30:23;;;;;;;3.13;1.95;;;21.30;61.70;;;;;;5114629;28;20185;-64
2021/08/09 05:32:48;;;;;;;2.30;1.60;;;21.30;61.70;;;;;;5114660;28;20177;-65
2021/08/09 05:35:14;;;;;;;2.97;1.40;;;21.30;61.80;;;;;;5114063;28;20206;-66
2021/08/09 05:37:39;;;;;;;5.25;1.90;;;21.30;61.80;;;;;;5114238;28;20225;-64
2021/08/09 05:40:05;;;;;;;2.35;1.67;;;21.30;61.80;;;;;;5114395;28;20169;-64
2021/08/09 05:42:31;;;;;;;2.22;1.63;;;21.30;61.80;;;;;;5113851;28;20189;-64
2021/08/09 05:44:56;;;;;;;2.13;1.52;;;21.30;61.80;;;;;;5114671;28;20165;-64
2021/08/09 05:47:22;;;;;;;3.08;1.60;;;21.30;61.80;;;;;;5114273;28;20204;-64
2021/08/09 05:49:47;;;;;;;1.77;1.45;;;21.30;61.80;;;;;;5113725;28;20551;-64
2021/08/09 05:52:18;;;;;;;2.58;1.80;;;21.30;61.80;;;;;;5114652;28;20207;-64
2021/08/09 05:54:44;;;;;;;3.70;1.80;;;21.30;61.70;;;;;;5114287;28;20219;-65
2021/08/09 05:57:09;;;;;;;3.72;1.67;;;21.30;62.50;;;;;;5113579;28;20169;-65
2021/08/09 05:59:35;;;;;;;1.42;1.23;;;21.30;61.70;;;;;;5114153;28;20252;-65
2021/08/09 06:02:00;;;;;;;3.20;1.67;;;21.30;61.70;;;;;;5114424;28;20226;-64
2021/08/09 06:04:26;;;;;;;2.42;1.50;;;21.30;61.60;;;;;;5113210;28;20576;-64
2021/08/09 06:06:51;;;;;;;3.70;1.65;;;21.30;61.70;;;;;;5114108;28;20204;-65
2021/08/09 06:09:17;;;;;;;3.05;1.90;;;21.30;62.60;;;;;;5113730;28;20177;-64
2021/08/09 06:11:42;;;;;;;3.40;1.52;;;21.30;61.70;;;;;;5113232;28;20627;-63
2021/08/09 06:14:08;;;;;;;4.55;1.85;;;21.40;61.80;;;;;;5114075;28;20178;-64
2021/08/09 06:16:33;;;;;;;2.08;1.38;;;21.30;61.80;;;;;;5112330;28;20166;-64
2021/08/09 06:18:59;;;;;;;2.17;1.50;;;21.30;61.90;;;;;;5114095;28;20181;-65
2021/08/09 06:21:25;;;;;;;1.98;1.52;;;21.30;61.80;;;;;;5113441;28;20227;-63
2021/08/09 06:23:50;;;;;;;2.55;1.45;;;21.30;61.80;;;;;;5113095;28;20200;-64
2021/08/09 06:26:16;;;;;;;2.67;1.35;;;21.30;61.80;;;;;;5113344;28;20177;-64
2021/08/09 06:28:41;;;;;;;2.08;1.50;;;21.30;61.90;;;;;;5113880;28;20713;-63
2021/08/09 06:31:08;;;;;;;3.78;1.63;;;21.30;61.80;;;;;;5113082;28;20215;-65
2021/08/09 06:33:33;;;;;;;2.35;1.75;;;21.30;61.90;;;;;;5113367;28;20173;-66
2021/08/09 06:35:59;;;;;;;2.47;1.80;;;21.30;61.80;;;;;;5113549;28;20165;-65
2021/08/09 06:38:24;;;;;;;2.60;1.80;;;21.30;61.90;;;;;;5112355;28;20588;-64
2021/08/09 06:40:50;;;;;;;5.53;2.22;;;21.40;62.00;;;;;;5113282;28;20691;-64
2021/08/09 06:43:15;;;;;;;4.47;1.95;;;21.40;62.00;;;;;;5112818;28;20271;-64
2021/08/09 06:45:46;;;;;;;2.80;1.75;;;21.40;62.00;;;;;;5112554;28;20272;-63
2021/08/09 06:48:12;;;;;;;2.38;1.75;;;21.40;62.00;;;;;;5113070;28;20270;-64
2021/08/09 06:50:39;;;;;;;4.45;1.83;;;21.40;62.00;;;;;;5112861;28;20622;-64
2021/08/09 06:53:05;;;;;;;3.30;1.85;;;21.40;62.00;;;;;;5112362;28;20177;-65
2021/08/09 06:55:30;;;;;;;4.65;2.10;;;21.40;62.00;;;;;;5112573;28;20505;-65
2021/08/09 06:57:56;;;;;;;6.78;2.35;;;21.40;62.00;;;;;;5113125;28;20177;-64
2021/08/09 07:00:21;;;;;;;6.47;1.75;;;21.40;62.10;;;;;;5112062;28;20205;-64
2021/08/09 07:02:47;;;;;;;5.13;1.80;;;21.40;62.10;;;;;;5112932;28;20264;-64
2021/08/09 07:05:12;;;;;;;5.20;2.15;;;21.50;62.10;;;;;;5112920;28;20759;-64
2021/08/09 07:07:38;;;;;;;4.43;2.53;;;21.40;62.00;;;;;;5111365;28;20212;-63
2021/08/09 07:10:05;;;;;;;5.60;2.17;;;21.50;62.00;;;;;;5112778;28;20169;-64
2021/08/09 07:12:30;;;;;;;3.28;2.00;;;21.50;61.90;;;;;;5112430;28;20218;-64
2021/08/09 07:14:56;;;;;;;4.90;1.80;;;21.50;61.90;;;;;;5111512;28;20259;-64
2021/08/09 07:17:21;;;;;;;4.25;2.00;;;21.50;61.90;;;;;;5111945;28;20631;-64
2021/08/09 07:19:47;;;;;;;5.32;1.90;;;21.50;61.90;;;;;;5111535;28;20184;-63
2021/08/09 07:22:12;;;;;;;6.82;2.20;;;21.50;61.90;;;;;;5112154;28;20185;-64
2021/08/09 07:24:38;;;;;;;3.67;1.80;;;21.60;62.00;;;;;;5111795;28;20173;-63
2021/08/09 07:27:03;;;;;;;3.33;1.77;;;21.60;61.90;;;;;;5110461;28;20204;-63
2021/08/09 07:29:31;;;;;;;5.60;2.05;;;21.60;61.90;;;;;;5112018;28;20539;-65
2021/08/09 07:31:57;;;;;;;2.90;2.00;;;21.60;61.90;;;;;;5112357;28;20577;-66
2021/08/09 07:34:23;;;;;;;5.05;2.17;;;21.60;61.90;;;;;;5110235;28;20264;-66
2021/08/09 07:36:48;;;;;;;3.15;2.13;;;21.60;62.00;;;;;;5112066;28;20165;-65
2021/08/09 07:39:14;;;;;;;5.20;2.15;;;21.60;61.90;;;;;;5112352;28;20226;-64
2021/08/09 07:41:39;;;;;;;5.22;2.00;;;21.70;61.90;;;;;;5111092;28;20260;-64
2021/08/09 07:44:05;;;;;;;4.18;1.75;;;21.70;61.80;;;;;;5112159;28;20489;-64
2021/08/09 07:46:31;;;;;;;3.58;1.80;;;21.70;61.80;;;;;;5111960;28;20576;-65
2021/08/09 07:48:56;;;;;;;3.50;2.05;;;21.70;61.80;;;;;;5111174;28;20216;-65
2021/08/09 07:51:22;;;;;;;3.25;1.80;;;21.70;61.80;;;;;;5111647;28;20169;-65
2021/08/09 07:53:47;;;;;;;3.22;2.00;;;21.70;61.80;;;;;;5112151;28;20744;-64
2021/08/09 07:56:13;;;;;;;2.95;1.80;;;21.80;61.80;;;;;;5111282;28;20256;-64
2021/08/09 07:58:38;;;;;;;4.13;2.22;;;21.80;61.70;;;;;;5111779;28;20201;-65
2021/08/09 08:01:04;;;;;;;3.28;2.05;;;21.80;62.50;;;;;;5111912;28;20565;-64
2021/08/09 08:03:29;;;;;;;4.60;2.08;;;21.80;61.60;;;;;;5110845;28;20222;-64
2021/08/09 08:05:55;;;;;;;3.10;1.75;;;21.90;61.60;;;;;;5111927;28;20164;-63
2021/08/09 08:08:23;;;;;;;3.70;1.95;;;21.90;61.60;;;;;;5111501;28;20205;-63
2021/08/09 08:10:48;;;;;;;2.75;1.60;;;21.90;61.70;;;;;;5111394;28;20248;-63
2021/08/09 08:13:14;;;;;;;4.55;1.98;;;21.90;61.60;;;;;;5112026;28;20204;-63
2021/08/09 08:15:39;;;;;;;2.78;1.85;;;21.90;61.60;;;;;;5111696;28;20169;-64
2021/08/09 08:18:05;;;;;;;4.70;2.30;;;21.90;61.60;;;;;;5111240;28;20173;-64
2021/08/09 08:20:30;;;;;;;4.07;1.67;;;21.90;61.70;;;;;;5111249;28;20216;-63
2021/08/09 08:22:57;;;;;;;4.93;1.95;;;21.90;61.80;;;;;;5111967;28;20169;-63
2021/08/09 08:25:23;;;;;;;3.65;1.92;;;21.90;61.80;;;;;;5111478;28;20174;-63
2021/08/09 08:27:49;;;;;;;3.35;1.60;;;22.00;61.80;;;;;;5111937;28;20215;-63
2021/08/09 08:30:15;;;;;;;3.97;2.38;;;21.90;62.60;;;;;;5111009;28;20523;-64
2021/08/09 08:32:41;;;;;;;2.95;1.60;;;21.90;61.80;;;;;;5111930;28;20181;-64
2021/08/09 08:35:08;;;;;;;2.20;1.77;;;21.90;61.80;;;;;;5111736;28;20529;-65
2021/08/09 08:37:34;;;;;;;3.88;1.90;;;21.90;62.70;;;;;;5110590;28;20189;-64
2021/08/09 08:39:59;;;;;;;3.50;2.15;;;22.00;61.80;;;;;;5115220;28;20553;-64
2021/08/09 08:42:27;;;;;;;4.22;1.95;;;22.00;61.80;;;;;;5115414;28;20185;-64
2021/08/09 08:44:53;;;;;;;4.38;1.70;;;22.00;61.70;;;;;;5114954;28;20637;-64
2021/08/09 08:47:19;;;;;;;3.80;1.58;;;22.10;61.70;;;;;;5115228;28;20201;-64
2021/08/09 08:49:44;;;;;;;4.85;2.20;;;22.10;61.70;;;;;;5115540;28;20227;-63
2021/08/09 08:52:10;;;;;;;2.70;1.67;;;22.10;61.70;;;;;;5115011;28;20173;-64
2021/08/09 08:54:36;;;;;;;2.47;1.38;;;22.10;61.70;;;;;;5114485;28;20491;-64
2021/08/09 08:57:03;;;;;;;2.42;1.50;;;22.10;61.80;;;;;;5115164;28;20189;-64
2021/08/09 08:59:30;;;;;;;3.38;1.70;;;22.10;61.80;;;;;;5114445;28;20169;-64
2021/08/09 09:01:55;;;;;;;3.30;2.28;;;22.10;62.60;;;;;;5115224;28;20524;-64
2021/08/09 09:04:28;;;;;;;3.55;1.75;;;22.10;61.80;;;;;;5114880;28;20176;-64
2021/08/09 09:07:00;;;;;;;2.88;1.83;;;22.10;61.90;;;;;;5114450;28;20180;-64
2021/08/09 09:09:29;;;;;;;2.95;1.52;;;22.00;61.90;;;;;;5114952;28;20176;-63
2021/08/09 09:11:54;;;;;;;3.55;1.67;;;22.00;61.90;;;;;;5115073;28;20252;-64
2021/08/09 09:14:28;;;;;;;3.47;1.75;;;22.10;61.90;;;;;;5113994;28;20568;-64
2021/08/09 09:16:53;;;;;;;3.97;1.80;;;22.10;61.80;;;;;;5113987;28;20257;-64
2021/08/09 09:19:43;;;;;;;2.75;1.70;;;22.20;61.70;;;;;;5114096;28;20224;-64
2021/08/09 09:22:19;;;;;;;2.55;1.58;;;22.20;61.60;;;;;;5114596;28;20632;-63
2021/08/09 09:24:52;;;;;;;2.75;1.63;;;22.30;61.40;;;;;;5114689;28;20181;-63
2021/08/09 09:27:31;;;;;;;2.47;1.85;;;22.30;61.30;;;;;;5113597;28;20227;-63
2021/08/09 09:29:57;;;;;;;2.80;1.65;;;22.40;61.30;;;;;;5114810;28;20180;-64
2021/08/09 09:32:23;;;;;;;2.35;1.35;;;22.30;61.40;;;;;;5114375;28;20504;-65
2021/08/09 09:34:53;;;;;;;3.15;1.67;;;22.30;61.60;;;;;;5114043;28;20369;-64
2021/08/09 09:37:26;;;;;;;2.85;1.58;;;22.30;61.70;;;;;;5113254;28;20209;-64
2021/08/09 09:39:52;;;;;;;2.63;1.65;;;22.30;61.70;;;;;;5114364;28;20177;-64
2021/08/09 09:42:20;;;;;;;3.25;1.60;;;22.40;61.70;;;;;;5113779;28;20202;-64
2021/08/09 09:44:46;;;;;;;1.77;1.50;;;22.30;62.50;;;;;;5114758;28;20165;-64
2021/08/09 09:47:25;;;;;;;4.07;1.63;;;22.30;61.80;;;;;;5114404;28;20212;-64
2021/08/09 09:49:55;;;;;;;4.28;2.00;;;22.30;61.80;;;;;;5113509;28;20636;-63
2021/08/09 09:52:44;;;;;;;3.85;1.60;;;22.30;61.80;;;;;;5114060;28;20566;-64
2021/08/09 09:55:11;;;;;;;2.05;1.52;;;22.20;61.80;;;;;;5113829;28;20541;-64
2021/08/09 09:57:37;;;;;;;3.13;1.50;;;22.40;61.80;;;;;;5114209;28;20184;-64
2021/08/09 10:00:07;;;;;;;3.22;1.50;;;22.40;61.50;;;;;;5114329;28;20256;-65
2021/08/09 10:02:32;;;;;;;2.53;1.90;;;22.50;61.30;;;;;;5113337;28;20173;-64
2021/08/09 10:04:58;;;;;;;1.95;1.55;;;22.60;61.20;;;;;;5114215;28;20539;-64
2021/08/09 10:07:26;;;;;;;2.47;1.40;;;22.50;61.20;;;;;;5113700;28;20205;-65
2021/08/09 10:09:53;;;;;;;2.60;1.58;;;22.50;61.30;;;;;;5095398;28;20631;-63
2021/08/09 10:12:24;;;;;;;2.78;1.65;;;22.50;61.50;;;;;;5113797;28;20207;-64
2021/08/09 10:14:56;;;;;;;3.17;1.40;;;22.40;61.50;;;;;;5096177;28;20165;-64
2021/08/09 10:17:22;;;;;;;2.20;1.63;;;22.40;61.70;;;;;;5112855;28;20186;-64
2021/08/09 10:19:49;;;;;;;2.05;1.52;;;22.40;61.40;;;;;;5095643;28;20179;-64
2021/08/09 10:22:19;;;;;;;3.40;1.75;;;22.40;61.00;;;;;;5095452;28;20565;-63
2021/08/09 10:24:44;;;;;;;3.10;1.80;;;22.30;60.80;;;;;;5113180;28;20181;-63
2021/08/09 10:27:10;;;;;;;5.85;2.10;;;22.30;60.50;;;;;;5113690;28;20197;-63
2021/08/09 10:30:01;;;;;;;3.65;1.65;;;22.30;60.10;;;;;;5094565;28;20216;-64
2021/08/09 10:32:26;;;;;;;3.63;1.73;;;22.30;60.00;;;;;;5113560;28;20176;-65
2021/08/09 10:34:52;;;;;;;3.53;2.00;;;22.30;59.70;;;;;;5113618;28;20177;-65
2021/08/09 10:37:23;;;;;;;4.55;1.67;;;22.40;59.50;;;;;;5112426;28;20238;-66
2021/08/09 10:39:55;;;;;;;2.80;1.88;;;22.30;59.60;;;;;;5113763;28;20184;-64
2021/08/09 10:42:29;;;;;;;7.07;2.20;;;22.30;59.50;;;;;;5113130;28;20180;-65
2021/08/09 10:44:55;;;;;;;3.60;1.63;;;22.30;59.60;;;;;;5112818;28;20176;-64
2021/08/09 10:47:46;;;;;;;5.63;2.03;;;22.30;59.70;;;;;;5113125;28;20212;-65
2021/08/09 10:50:26;;;;;;;6.25;2.05;;;22.30;60.10;;;;;;5113296;28;20185;-64
2021/08/09 10:52:55;;;;;;;3.25;1.90;;;22.30;59.90;;;;;;5112371;28;20177;-64
2021/08/09 10:55:29;;;;;;;4.20;1.92;;;22.30;60.10;;;;;;5113041;28;20547;-64
2021/08/09 10:57:55;;;;;;;4.93;1.88;;;22.40;60.10;;;;;;5112426;28;20176;-65
2021/08/09 11:00:42;;;;;;;2.90;1.77;;;22.40;60.20;;;;;;5112600;28;20222;-66
2021/08/09 11:03:08;;;;;;;5.05;1.75;;;22.40;60.60;;;;;;5112684;28;20169;-64
2021/08/09 11:05:34;;;;;;;4.80;1.70;;;22.40;60.70;;;;;;5112066;28;20260;-64
2021/08/09 11:08:18;;;;;;;4.68;1.67;;;22.40;60.70;;;;;;5112895;28;20295;-65
2021/08/09 11:10:54;;;;;;;9.45;2.25;;;22.50;60.60;;;;;;5113006;28;20195;-64
2021/08/09 11:13:19;;;;;;;5.40;2.00;;;22.50;60.70;;;;;;5111747;28;20256;-65
2021/08/09 11:15:57;;;;;;;4.13;1.90;;;22.50;60.80;;;;;;5112741;28;20242;-65
2021/08/09 11:18:23;;;;;;;6.32;1.98;;;22.50;61.00;;;;;;5112602;28;20189;-64
2021/08/09 11:21:04;;;;;;;4.55;1.75;;;22.40;61.20;;;;;;5112023;28;20213;-66
2021/08/09 11:23:43;;;;;;;3.72;1.60;;;22.40;61.20;;;;;;5095235;28;20193;-66
2021/08/09 11:26:19;;;;;;;4.20;1.55;;;22.30;61.30;;;;;;5112063;28;20655;-67
2021/08/09 11:28:59;;;;;;;3.40;1.60;;;22.20;61.40;;;;;;5112783;28;20224;-67
2021/08/09 11:31:25;;;;;;;5.05;1.70;;;22.20;61.40;;;;;;5112611;28;20165;-67
2021/08/09 11:33:50;;;;;;;5.22;1.80;;;22.20;61.50;;;;;;5111931;28;20226;-67
2021/08/09 11:36:16;;;;;;;1.95;1.60;;;22.20;61.50;;;;;;5112349;28;20161;-67
2021/08/09 11:38:49;;;;;;;6.15;1.48;;;22.20;61.50;;;;;;5112747;28;20224;-67
2021/08/09 11:41:25;;;;;;;1.98;1.50;;;22.20;61.60;;;;;;5112210;28;20169;-67
2021/08/09 11:44:10;;;;;;;2.30;1.40;;;22.10;61.50;;;;;;5112720;28;20647;-67
2021/08/09 11:46:46;;;;;;;3.88;1.67;;;22.10;61.60;;;;;;5112354;28;20179;-67
2021/08/09 11:49:11;;;;;;;4.05;1.85;;;22.10;61.60;;;;;;5111850;28;20219;-67
2021/08/09 11:51:37;;;;;;;4.28;2.25;;;22.10;61.60;;;;;;5112512;28;20193;-66
2021/08/09 11:54:02;;;;;;;3.22;1.80;;;22.10;61.40;;;;;;5111852;28;20651;-68
2021/08/09 11:56:32;;;;;;;2.97;1.85;;;22.20;61.30;;;;;;5112252;28;20674;-68
2021/08/09 11:58:58;;;;;;;4.13;1.52;;;22.20;61.20;;;;;;5112441;28;20183;-68
2021/08/09 12:01:30;;;;;;;3.10;1.60;;;22.30;61.20;;;;;;5111466;28;20177;-68
2021/08/09 12:04:21;;;;;;;2.85;1.60;;;22.30;61.00;;;;;;5112283;28;20206;-67
2021/08/09 12:06:57;;;;;;;3.65;1.67;;;22.30;61.10;;;;;;5112500;28;20206;-66
2021/08/09 12:09:36;;;;;;;2.80;1.50;;;22.30;61.20;;;;;;5111499;28;20200;-67
2021/08/09 12:12:04;;;;;;;2.97;1.75;;;22.30;61.20;;;;;;5112394;28;20177;-67
2021/08/09 12:14:30;;;;;;;2.75;1.45;;;22.30;61.30;;;;;;5115186;28;20666;-67
2021/08/09 12:16:57;;;;;;;1.85;1.55;;;22.30;61.40;;;;;;5115900;28;20180;-68
2021/08/09 12:19:42;;;;;;;2.40;1.60;;;22.30;61.50;;;;;;5116254;28;20520;-68
2021/08/09 12:22:19;;;;;;;3.65;1.50;;;22.30;61.50;;;;;;5115499;28;20239;-68
2021/08/09 12:25:00;;;;;;;4.68;1.50;;;22.30;61.60;;;;;;5116514;28;20173;-66
2021/08/09 12:27:26;;;;;;;3.45;1.33;;;22.30;61.60;;;;;;5100101;28;20204;-67
2021/08/09 12:30:00;;;;;;;4.43;1.52;;;22.30;61.60;;;;;;5115463;28;20184;-66
2021/08/09 12:32:27;;;;;;;5.07;1.63;;;22.30;61.70;;;;;;5115810;28;20169;-68
2021/08/09 12:34:52;;;;;;;2.30;1.45;;;22.40;61.80;;;;;;5115910;28;20199;-67
2021/08/09 12:37:20;;;;;;;1.92;1.52;;;22.40;62.10;;;;;;5114856;28;20619;-68
2021/08/09 12:39:46;;;;;;;1.85;1.20;;;22.50;61.40;;;;;;5115701;28;20596;-66
2021/08/09 12:42:16;;;;;;;2.33;1.50;;;22.50;61.40;;;;;;5115822;28;20188;-69
2021/08/09 12:44:42;;;;;;;2.50;1.27;;;22.60;61.40;;;;;;5115316;28;20681;-67
2021/08/09 12:47:07;;;;;;;2.35;1.23;;;22.70;61.50;;;;;;5115748;28;20197;-66
2021/08/09 12:49:33;;;;;;;2.70;1.38;;;22.70;61.60;;;;;;5115455;28;20177;-67
2021/08/09 12:51:58;;;;;;;2.95;1.40;;;22.70;61.50;;;;;;5114808;28;20169;-66